sensor_id;sensor_type;location;lat;lon;timestamp;P1;durP1;ratioP1;P2;durP2;ratioP2
21825;SDS011;11075;47.944;11.776;2022-07-18T00:00:31;4.67;;;4.23;;
21825;SDS011;11075;47.944;11.776;2022-07-18T00:02:59;8.07;;;3.85;;
21825;SDS011;11075;47.944;11.776;2022-07-18T00:05:26;4.05;;;3.65;;
21825;SDS011;11075;47.944;11.776;2022-07-18T00:07:53;3.93;;;3.40;;
21825;SDS011;11075;47.944;11.776;2022-07-18T00:10:21;3.90;;;3.60;;
21825;SDS011;11075;47.944;11.776;2022-07-18T00:12:48;6.13;;;3.60;;
21825;SDS011;11075;47.944;11.776;2022-07-18T00:15:15;6.13;;;4.43;;
21825;SDS011;11075;47.944;11.776;2022-07-18T00:17:42;5.45;;;3.88;;
21825;SDS011;11075;47.944;11.776;2022-07-18T00:20:09;4.87;;;4.00;;
21825;SDS011;11075;47.944;11.776;2022-07-18T00:22:37;5.30;;;4.07;;
21825;SDS011;11075;47.944;11.776;2022-07-18T00:25:05;5.53;;;3.90;;
21825;SDS011;11075;47.944;11.776;2022-07-18T00:27:32;4.23;;;3.60;;
21825;SDS011;11075;47.944;11.776;2022-07-18T00:29:59;4.40;;;4.00;;
21825;SDS011;11075;47.944;11.776;2022-07-18T00:32:26;4.10;;;3.53;;
21825;SDS011;11075;47.944;11.776;2022-07-18T00:34:53;5.87;;;3.77;;
21825;SDS011;11075;47.944;11.776;2022-07-18T00:37:20;4.73;;;4.13;;
21825;SDS011;11075;47.944;11.776;2022-07-18T00:39:47;5.60;;;3.93;;
21825;SDS011;11075;47.944;11.776;2022-07-18T00:42:14;5.20;;;4.07;;
21825;SDS011;11075;47.944;11.776;2022-07-18T00:44:41;4.30;;;3.90;;
21825;SDS011;11075;47.944;11.776;2022-07-18T00:47:08;4.87;;;3.93;;
21825;SDS011;11075;47.944;11.776;2022-07-18T00:49:35;5.90;;;4.07;;
21825;SDS011;11075;47.944;11.776;2022-07-18T00:52:02;4.13;;;3.73;;
21825;SDS011;11075;47.944;11.776;2022-07-18T00:54:29;4.60;;;4.17;;
21825;SDS011;11075;47.944;11.776;2022-07-18T00:56:59;5.77;;;3.90;;
21825;SDS011;11075;47.944;11.776;2022-07-18T00:59:27;5.13;;;3.83;;
21825;SDS011;11075;47.944;11.776;2022-07-18T01:02:14;4.70;;;4.10;;
21825;SDS011;11075;47.944;11.776;2022-07-18T01:04:42;9.73;;;4.10;;
21825;SDS011;11075;47.944;11.776;2022-07-18T01:07:09;4.70;;;4.00;;
21825;SDS011;11075;47.944;11.776;2022-07-18T01:09:36;4.70;;;3.87;;
21825;SDS011;11075;47.944;11.776;2022-07-18T01:12:03;4.43;;;3.90;;
21825;SDS011;11075;47.944;11.776;2022-07-18T01:14:31;4.30;;;3.90;;
21825;SDS011;11075;47.944;11.776;2022-07-18T01:16:59;4.07;;;3.77;;
21825;SDS011;11075;47.944;11.776;2022-07-18T01:19:25;4.90;;;4.17;;
21825;SDS011;11075;47.944;11.776;2022-07-18T01:21:52;5.40;;;4.70;;
21825;SDS011;11075;47.944;11.776;2022-07-18T01:24:19;5.10;;;4.60;;
21825;SDS011;11075;47.944;11.776;2022-07-18T01:26:46;5.80;;;4.70;;
21825;SDS011;11075;47.944;11.776;2022-07-18T01:29:13;5.17;;;4.60;;
21825;SDS011;11075;47.944;11.776;2022-07-18T01:31:40;4.73;;;4.33;;
21825;SDS011;11075;47.944;11.776;2022-07-18T01:34:07;4.60;;;4.20;;
21825;SDS011;11075;47.944;11.776;2022-07-18T01:36:33;5.50;;;4.27;;
21825;SDS011;11075;47.944;11.776;2022-07-18T01:39:01;4.53;;;3.77;;
21825;SDS011;11075;47.944;11.776;2022-07-18T01:41:27;5.47;;;4.43;;
21825;SDS011;11075;47.944;11.776;2022-07-18T01:43:54;5.70;;;4.53;;
21825;SDS011;11075;47.944;11.776;2022-07-18T01:46:21;5.43;;;4.67;;
21825;SDS011;11075;47.944;11.776;2022-07-18T01:48:48;4.73;;;4.33;;
21825;SDS011;11075;47.944;11.776;2022-07-18T01:51:15;5.00;;;4.60;;
21825;SDS011;11075;47.944;11.776;2022-07-18T01:53:42;5.43;;;4.53;;
21825;SDS011;11075;47.944;11.776;2022-07-18T01:56:19;6.33;;;5.03;;
21825;SDS011;11075;47.944;11.776;2022-07-18T01:58:46;5.57;;;5.00;;
21825;SDS011;11075;47.944;11.776;2022-07-18T02:01:13;5.77;;;4.47;;
21825;SDS011;11075;47.944;11.776;2022-07-18T02:03:40;5.50;;;5.00;;
21825;SDS011;11075;47.944;11.776;2022-07-18T02:06:06;6.03;;;4.87;;
21825;SDS011;11075;47.944;11.776;2022-07-18T02:08:33;6.27;;;4.77;;
21825;SDS011;11075;47.944;11.776;2022-07-18T02:11:00;5.90;;;5.03;;
21825;SDS011;11075;47.944;11.776;2022-07-18T02:13:27;5.57;;;4.50;;
21825;SDS011;11075;47.944;11.776;2022-07-18T02:15:54;5.93;;;5.10;;
21825;SDS011;11075;47.944;11.776;2022-07-18T02:18:22;5.57;;;4.77;;
21825;SDS011;11075;47.944;11.776;2022-07-18T02:20:48;10.07;;;4.77;;
21825;SDS011;11075;47.944;11.776;2022-07-18T02:23:15;7.60;;;4.90;;
21825;SDS011;11075;47.944;11.776;2022-07-18T02:25:43;5.50;;;4.80;;
21825;SDS011;11075;47.944;11.776;2022-07-18T02:28:10;6.00;;;4.97;;
21825;SDS011;11075;47.944;11.776;2022-07-18T02:30:37;5.73;;;4.83;;
21825;SDS011;11075;47.944;11.776;2022-07-18T02:33:04;7.57;;;5.00;;
21825;SDS011;11075;47.944;11.776;2022-07-18T02:35:32;7.33;;;5.10;;
21825;SDS011;11075;47.944;11.776;2022-07-18T02:38:00;5.70;;;4.70;;
21825;SDS011;11075;47.944;11.776;2022-07-18T02:40:27;5.33;;;4.73;;
21825;SDS011;11075;47.944;11.776;2022-07-18T02:42:54;5.37;;;4.87;;
21825;SDS011;11075;47.944;11.776;2022-07-18T02:45:21;8.83;;;5.13;;
21825;SDS011;11075;47.944;11.776;2022-07-18T02:47:47;5.73;;;5.20;;
21825;SDS011;11075;47.944;11.776;2022-07-18T02:50:14;5.20;;;4.70;;
21825;SDS011;11075;47.944;11.776;2022-07-18T02:52:42;5.73;;;4.73;;
21825;SDS011;11075;47.944;11.776;2022-07-18T02:55:10;6.13;;;4.33;;
21825;SDS011;11075;47.944;11.776;2022-07-18T02:57:38;8.40;;;5.07;;
21825;SDS011;11075;47.944;11.776;2022-07-18T03:00:07;6.87;;;4.90;;
21825;SDS011;11075;47.944;11.776;2022-07-18T03:02:38;6.50;;;5.77;;
21825;SDS011;11075;47.944;11.776;2022-07-18T03:05:05;5.80;;;5.20;;
21825;SDS011;11075;47.944;11.776;2022-07-18T03:07:33;5.50;;;4.77;;
21825;SDS011;11075;47.944;11.776;2022-07-18T03:10:00;10.23;;;5.17;;
21825;SDS011;11075;47.944;11.776;2022-07-18T03:12:27;6.17;;;5.40;;
21825;SDS011;11075;47.944;11.776;2022-07-18T03:14:54;6.93;;;5.43;;
21825;SDS011;11075;47.944;11.776;2022-07-18T03:17:21;7.10;;;5.40;;
21825;SDS011;11075;47.944;11.776;2022-07-18T03:19:48;7.97;;;5.00;;
21825;SDS011;11075;47.944;11.776;2022-07-18T03:22:15;5.63;;;4.93;;
21825;SDS011;11075;47.944;11.776;2022-07-18T03:24:41;5.90;;;5.30;;
21825;SDS011;11075;47.944;11.776;2022-07-18T03:27:08;6.27;;;5.60;;
21825;SDS011;11075;47.944;11.776;2022-07-18T03:32:03;6.37;;;5.70;;
21825;SDS011;11075;47.944;11.776;2022-07-18T03:34:30;9.10;;;5.67;;
21825;SDS011;11075;47.944;11.776;2022-07-18T03:36:57;6.27;;;5.40;;
21825;SDS011;11075;47.944;11.776;2022-07-18T03:39:24;7.03;;;5.33;;
21825;SDS011;11075;47.944;11.776;2022-07-18T03:41:52;6.10;;;5.50;;
21825;SDS011;11075;47.944;11.776;2022-07-18T03:44:19;5.67;;;5.17;;
21825;SDS011;11075;47.944;11.776;2022-07-18T03:46:46;10.47;;;5.70;;
21825;SDS011;11075;47.944;11.776;2022-07-18T03:49:13;9.07;;;6.27;;
21825;SDS011;11075;47.944;11.776;2022-07-18T03:51:39;6.33;;;5.60;;
21825;SDS011;11075;47.944;11.776;2022-07-18T03:54:06;5.13;;;4.63;;
21825;SDS011;11075;47.944;11.776;2022-07-18T03:56:35;4.93;;;4.53;;
21825;SDS011;11075;47.944;11.776;2022-07-18T03:59:02;5.37;;;4.40;;
21825;SDS011;11075;47.944;11.776;2022-07-18T04:01:30;6.40;;;5.63;;
21825;SDS011;11075;47.944;11.776;2022-07-18T04:03:57;5.93;;;5.33;;
21825;SDS011;11075;47.944;11.776;2022-07-18T04:06:24;5.40;;;4.90;;
21825;SDS011;11075;47.944;11.776;2022-07-18T04:08:51;6.00;;;4.90;;
21825;SDS011;11075;47.944;11.776;2022-07-18T04:11:17;6.40;;;4.70;;
21825;SDS011;11075;47.944;11.776;2022-07-18T04:13:48;7.50;;;4.70;;
21825;SDS011;11075;47.944;11.776;2022-07-18T04:16:15;6.77;;;4.70;;
21825;SDS011;11075;47.944;11.776;2022-07-18T04:18:42;6.83;;;4.50;;
21825;SDS011;11075;47.944;11.776;2022-07-18T04:21:09;5.03;;;4.27;;
21825;SDS011;11075;47.944;11.776;2022-07-18T04:23:36;5.40;;;4.30;;
21825;SDS011;11075;47.944;11.776;2022-07-18T04:26:02;4.80;;;4.23;;
21825;SDS011;11075;47.944;11.776;2022-07-18T04:28:30;5.10;;;4.47;;
21825;SDS011;11075;47.944;11.776;2022-07-18T04:30:57;5.63;;;4.30;;
21825;SDS011;11075;47.944;11.776;2022-07-18T04:33:24;5.50;;;4.43;;
21825;SDS011;11075;47.944;11.776;2022-07-18T04:35:51;7.93;;;5.10;;
21825;SDS011;11075;47.944;11.776;2022-07-18T04:38:18;6.13;;;4.70;;
21825;SDS011;11075;47.944;11.776;2022-07-18T04:40:44;8.97;;;4.80;;
21825;SDS011;11075;47.944;11.776;2022-07-18T04:43:11;6.57;;;4.80;;
21825;SDS011;11075;47.944;11.776;2022-07-18T04:45:38;7.50;;;4.90;;
21825;SDS011;11075;47.944;11.776;2022-07-18T04:48:05;6.67;;;4.50;;
21825;SDS011;11075;47.944;11.776;2022-07-18T04:50:33;11.20;;;5.40;;
21825;SDS011;11075;47.944;11.776;2022-07-18T04:53:00;6.87;;;4.97;;
21825;SDS011;11075;47.944;11.776;2022-07-18T04:55:27;6.93;;;4.80;;
21825;SDS011;11075;47.944;11.776;2022-07-18T04:57:54;6.23;;;5.27;;
21825;SDS011;11075;47.944;11.776;2022-07-18T05:00:23;5.90;;;4.90;;
21825;SDS011;11075;47.944;11.776;2022-07-18T05:02:51;6.55;;;4.68;;
21825;SDS011;11075;47.944;11.776;2022-07-18T05:05:20;8.13;;;4.47;;
21825;SDS011;11075;47.944;11.776;2022-07-18T05:07:47;5.55;;;4.45;;
21825;SDS011;11075;47.944;11.776;2022-07-18T05:10:15;7.22;;;4.43;;
21825;SDS011;11075;47.944;11.776;2022-07-18T05:12:45;4.82;;;4.25;;
21825;SDS011;11075;47.944;11.776;2022-07-18T05:15:14;8.23;;;4.78;;
21825;SDS011;11075;47.944;11.776;2022-07-18T05:17:42;8.90;;;4.35;;
21825;SDS011;11075;47.944;11.776;2022-07-18T05:20:10;9.55;;;4.60;;
21825;SDS011;11075;47.944;11.776;2022-07-18T05:22:39;5.10;;;4.45;;
21825;SDS011;11075;47.944;11.776;2022-07-18T05:25:07;5.45;;;4.40;;
21825;SDS011;11075;47.944;11.776;2022-07-18T05:27:35;4.45;;;3.90;;
21825;SDS011;11075;47.944;11.776;2022-07-18T05:30:04;4.30;;;3.90;;
21825;SDS011;11075;47.944;11.776;2022-07-18T05:32:32;5.43;;;4.10;;
21825;SDS011;11075;47.944;11.776;2022-07-18T05:34:59;4.82;;;3.78;;
21825;SDS011;11075;47.944;11.776;2022-07-18T05:37:26;4.95;;;4.03;;
21825;SDS011;11075;47.944;11.776;2022-07-18T05:39:53;4.18;;;3.60;;
21825;SDS011;11075;47.944;11.776;2022-07-18T05:42:20;6.82;;;4.10;;
21825;SDS011;11075;47.944;11.776;2022-07-18T05:45:07;4.35;;;3.95;;
21825;SDS011;11075;47.944;11.776;2022-07-18T05:47:34;4.13;;;3.72;;
21825;SDS011;11075;47.944;11.776;2022-07-18T05:50:02;4.47;;;4.05;;
21825;SDS011;11075;47.944;11.776;2022-07-18T05:52:29;3.53;;;3.22;;
21825;SDS011;11075;47.944;11.776;2022-07-18T05:54:56;4.07;;;3.65;;
21825;SDS011;11075;47.944;11.776;2022-07-18T05:57:23;3.78;;;3.33;;
21825;SDS011;11075;47.944;11.776;2022-07-18T05:59:50;5.07;;;3.10;;
21825;SDS011;11075;47.944;11.776;2022-07-18T06:02:17;3.92;;;3.33;;
21825;SDS011;11075;47.944;11.776;2022-07-18T06:04:44;3.47;;;2.90;;
21825;SDS011;11075;47.944;11.776;2022-07-18T06:07:31;3.53;;;2.88;;
21825;SDS011;11075;47.944;11.776;2022-07-18T06:09:58;4.40;;;3.25;;
21825;SDS011;11075;47.944;11.776;2022-07-18T06:12:25;3.65;;;2.90;;
21825;SDS011;11075;47.944;11.776;2022-07-18T06:14:57;3.70;;;3.03;;
21825;SDS011;11075;47.944;11.776;2022-07-18T06:17:25;3.22;;;2.80;;
21825;SDS011;11075;47.944;11.776;2022-07-18T06:19:52;4.13;;;2.65;;
21825;SDS011;11075;47.944;11.776;2022-07-18T06:22:19;4.80;;;2.63;;
21825;SDS011;11075;47.944;11.776;2022-07-18T06:24:46;6.78;;;3.03;;
21825;SDS011;11075;47.944;11.776;2022-07-18T06:27:13;3.53;;;2.80;;
21825;SDS011;11075;47.944;11.776;2022-07-18T06:29:40;3.97;;;2.55;;
21825;SDS011;11075;47.944;11.776;2022-07-18T06:32:07;3.72;;;2.60;;
21825;SDS011;11075;47.944;11.776;2022-07-18T06:34:34;4.22;;;2.47;;
21825;SDS011;11075;47.944;11.776;2022-07-18T06:37:00;2.88;;;2.40;;
21825;SDS011;11075;47.944;11.776;2022-07-18T06:39:27;3.40;;;2.55;;
21825;SDS011;11075;47.944;11.776;2022-07-18T06:41:54;2.83;;;2.55;;
21825;SDS011;11075;47.944;11.776;2022-07-18T06:44:24;2.75;;;2.55;;
21825;SDS011;11075;47.944;11.776;2022-07-18T06:46:51;3.53;;;2.20;;
21825;SDS011;11075;47.944;11.776;2022-07-18T06:49:19;2.70;;;2.03;;
21825;SDS011;11075;47.944;11.776;2022-07-18T06:51:46;2.97;;;2.08;;
21825;SDS011;11075;47.944;11.776;2022-07-18T06:54:12;2.00;;;1.90;;
21825;SDS011;11075;47.944;11.776;2022-07-18T06:56:40;2.35;;;2.10;;
21825;SDS011;11075;47.944;11.776;2022-07-18T06:59:07;2.40;;;2.00;;
21825;SDS011;11075;47.944;11.776;2022-07-18T07:01:34;3.45;;;1.98;;
21825;SDS011;11075;47.944;11.776;2022-07-18T07:04:01;2.70;;;2.30;;
21825;SDS011;11075;47.944;11.776;2022-07-18T07:06:29;2.10;;;1.92;;
21825;SDS011;11075;47.944;11.776;2022-07-18T07:08:56;4.53;;;2.35;;
21825;SDS011;11075;47.944;11.776;2022-07-18T07:11:23;2.15;;;1.92;;
21825;SDS011;11075;47.944;11.776;2022-07-18T07:13:50;3.50;;;2.38;;
21825;SDS011;11075;47.944;11.776;2022-07-18T07:16:17;2.42;;;2.05;;
21825;SDS011;11075;47.944;11.776;2022-07-18T07:18:44;2.90;;;2.30;;
21825;SDS011;11075;47.944;11.776;2022-07-18T07:21:11;3.80;;;2.00;;
21825;SDS011;11075;47.944;11.776;2022-07-18T07:23:45;2.50;;;2.10;;
21825;SDS011;11075;47.944;11.776;2022-07-18T07:26:12;2.60;;;1.85;;
21825;SDS011;11075;47.944;11.776;2022-07-18T07:28:38;3.35;;;1.98;;
21825;SDS011;11075;47.944;11.776;2022-07-18T07:31:05;2.50;;;1.98;;
21825;SDS011;11075;47.944;11.776;2022-07-18T07:33:33;2.47;;;1.85;;
21825;SDS011;11075;47.944;11.776;2022-07-18T07:36:00;1.83;;;1.67;;
21825;SDS011;11075;47.944;11.776;2022-07-18T07:38:27;2.47;;;1.70;;
21825;SDS011;11075;47.944;11.776;2022-07-18T07:40:55;2.30;;;1.75;;
21825;SDS011;11075;47.944;11.776;2022-07-18T07:43:23;1.80;;;1.40;;
21825;SDS011;11075;47.944;11.776;2022-07-18T07:45:50;2.97;;;1.80;;
21825;SDS011;11075;47.944;11.776;2022-07-18T07:48:19;2.55;;;1.75;;
21825;SDS011;11075;47.944;11.776;2022-07-18T07:50:46;2.17;;;1.77;;
21825;SDS011;11075;47.944;11.776;2022-07-18T07:53:13;2.80;;;1.90;;
21825;SDS011;11075;47.944;11.776;2022-07-18T07:55:40;2.15;;;1.50;;
21825;SDS011;11075;47.944;11.776;2022-07-18T07:58:07;2.33;;;1.60;;
21825;SDS011;11075;47.944;11.776;2022-07-18T08:00:35;5.75;;;2.85;;
21825;SDS011;11075;47.944;11.776;2022-07-18T08:03:04;4.35;;;1.80;;
21825;SDS011;11075;47.944;11.776;2022-07-18T08:05:34;3.03;;;1.60;;
21825;SDS011;11075;47.944;11.776;2022-07-18T08:08:04;2.35;;;1.98;;
21825;SDS011;11075;47.944;11.776;2022-07-18T08:10:32;2.90;;;1.70;;
21825;SDS011;11075;47.944;11.776;2022-07-18T08:13:08;2.00;;;1.48;;
21825;SDS011;11075;47.944;11.776;2022-07-18T08:15:36;6.97;;;3.45;;
21825;SDS011;11075;47.944;11.776;2022-07-18T08:18:03;2.42;;;1.23;;
21825;SDS011;11075;47.944;11.776;2022-07-18T08:20:30;2.40;;;1.30;;
21825;SDS011;11075;47.944;11.776;2022-07-18T08:23:04;3.10;;;1.30;;
21825;SDS011;11075;47.944;11.776;2022-07-18T08:25:34;2.25;;;1.30;;
21825;SDS011;11075;47.944;11.776;2022-07-18T08:28:03;6.15;;;1.27;;
21825;SDS011;11075;47.944;11.776;2022-07-18T08:30:31;1.58;;;1.00;;
21825;SDS011;11075;47.944;11.776;2022-07-18T08:32:58;3.30;;;1.13;;
21825;SDS011;11075;47.944;11.776;2022-07-18T08:35:28;4.43;;;1.00;;
21825;SDS011;11075;47.944;11.776;2022-07-18T08:37:55;1.00;;;0.88;;
21825;SDS011;11075;47.944;11.776;2022-07-18T08:40:23;3.55;;;1.10;;
21825;SDS011;11075;47.944;11.776;2022-07-18T08:42:51;0.98;;;0.80;;
21825;SDS011;11075;47.944;11.776;2022-07-18T08:45:41;2.33;;;1.10;;
21825;SDS011;11075;47.944;11.776;2022-07-18T08:48:09;2.75;;;1.20;;
21825;SDS011;11075;47.944;11.776;2022-07-18T08:50:41;1.20;;;1.10;;
21825;SDS011;11075;47.944;11.776;2022-07-18T08:53:10;3.70;;;1.00;;
21825;SDS011;11075;47.944;11.776;2022-07-18T08:55:38;1.25;;;1.15;;
21825;SDS011;11075;47.944;11.776;2022-07-18T08:58:04;1.45;;;1.35;;
21825;SDS011;11075;47.944;11.776;2022-07-18T09:00:51;1.77;;;1.20;;
21825;SDS011;11075;47.944;11.776;2022-07-18T09:03:18;2.70;;;0.90;;
21825;SDS011;11075;47.944;11.776;2022-07-18T09:05:45;1.88;;;1.00;;
21825;SDS011;11075;47.944;11.776;2022-07-18T09:08:16;1.73;;;1.20;;
21825;SDS011;11075;47.944;11.776;2022-07-18T09:10:52;1.65;;;1.02;;
21825;SDS011;11075;47.944;11.776;2022-07-18T09:13:39;1.70;;;1.02;;
21825;SDS011;11075;47.944;11.776;2022-07-18T09:16:10;0.95;;;0.95;;
21825;SDS011;11075;47.944;11.776;2022-07-18T09:18:42;3.00;;;1.10;;
21825;SDS011;11075;47.944;11.776;2022-07-18T09:23:41;1.00;;;0.90;;
21825;SDS011;11075;47.944;11.776;2022-07-18T09:26:10;1.08;;;1.00;;
21825;SDS011;11075;47.944;11.776;2022-07-18T09:28:47;2.35;;;1.10;;
21825;SDS011;11075;47.944;11.776;2022-07-18T09:31:36;2.13;;;1.10;;
21825;SDS011;11075;47.944;11.776;2022-07-18T09:34:04;1.67;;;1.48;;
21825;SDS011;11075;47.944;11.776;2022-07-18T09:36:32;3.55;;;1.42;;
21825;SDS011;11075;47.944;11.776;2022-07-18T09:39:16;5.13;;;1.30;;
21825;SDS011;11075;47.944;11.776;2022-07-18T09:41:45;1.45;;;1.00;;
21825;SDS011;11075;47.944;11.776;2022-07-18T09:44:16;2.05;;;0.90;;
21825;SDS011;11075;47.944;11.776;2022-07-18T09:47:00;9.38;;;1.45;;
21825;SDS011;11075;47.944;11.776;2022-07-18T09:49:31;2.63;;;1.17;;
21825;SDS011;11075;47.944;11.776;2022-07-18T09:52:02;1.20;;;1.05;;
21825;SDS011;11075;47.944;11.776;2022-07-18T09:54:38;1.63;;;1.17;;
21825;SDS011;11075;47.944;11.776;2022-07-18T09:57:09;1.40;;;1.30;;
21825;SDS011;11075;47.944;11.776;2022-07-18T09:59:36;2.90;;;1.20;;
21825;SDS011;11075;47.944;11.776;2022-07-18T10:02:10;2.88;;;1.20;;
21825;SDS011;11075;47.944;11.776;2022-07-18T10:04:37;1.98;;;1.40;;
21825;SDS011;11075;47.944;11.776;2022-07-18T10:07:06;2.25;;;1.38;;
21825;SDS011;11075;47.944;11.776;2022-07-18T10:09:32;3.20;;;1.05;;
21825;SDS011;11075;47.944;11.776;2022-07-18T10:12:00;1.30;;;1.20;;
21825;SDS011;11075;47.944;11.776;2022-07-18T10:14:29;1.23;;;1.13;;
21825;SDS011;11075;47.944;11.776;2022-07-18T10:16:57;2.65;;;1.20;;
21825;SDS011;11075;47.944;11.776;2022-07-18T10:19:25;3.17;;;1.08;;
21825;SDS011;11075;47.944;11.776;2022-07-18T10:21:53;2.00;;;1.10;;
21825;SDS011;11075;47.944;11.776;2022-07-18T10:24:23;3.50;;;1.40;;
21825;SDS011;11075;47.944;11.776;2022-07-18T10:27:11;2.13;;;1.20;;
21825;SDS011;11075;47.944;11.776;2022-07-18T10:32:35;4.10;;;1.30;;
21825;SDS011;11075;47.944;11.776;2022-07-18T10:35:02;7.25;;;1.15;;
21825;SDS011;11075;47.944;11.776;2022-07-18T10:37:31;1.27;;;0.90;;
21825;SDS011;11075;47.944;11.776;2022-07-18T10:45:57;1.95;;;1.20;;
21825;SDS011;11075;47.944;11.776;2022-07-18T10:51:13;1.92;;;0.88;;
21825;SDS011;11075;47.944;11.776;2022-07-18T10:58:54;1.42;;;1.13;;
21825;SDS011;11075;47.944;11.776;2022-07-18T11:01:22;2.38;;;1.10;;
21825;SDS011;11075;47.944;11.776;2022-07-18T11:04:04;2.55;;;1.30;;
21825;SDS011;11075;47.944;11.776;2022-07-18T11:09:38;2.33;;;1.35;;
21825;SDS011;11075;47.944;11.776;2022-07-18T11:12:18;2.17;;;1.05;;
21825;SDS011;11075;47.944;11.776;2022-07-18T11:20:35;4.13;;;1.15;;
21825;SDS011;11075;47.944;11.776;2022-07-18T11:23:22;1.85;;;1.10;;
21825;SDS011;11075;47.944;11.776;2022-07-18T11:25:52;2.63;;;1.30;;
21825;SDS011;11075;47.944;11.776;2022-07-18T11:28:24;2.10;;;1.15;;
21825;SDS011;11075;47.944;11.776;2022-07-18T11:31:03;1.48;;;1.10;;
21825;SDS011;11075;47.944;11.776;2022-07-18T11:33:33;4.95;;;1.10;;
21825;SDS011;11075;47.944;11.776;2022-07-18T11:36:06;1.45;;;0.75;;
21825;SDS011;11075;47.944;11.776;2022-07-18T11:38:38;2.75;;;1.17;;
21825;SDS011;11075;47.944;11.776;2022-07-18T11:41:06;2.45;;;0.80;;
21825;SDS011;11075;47.944;11.776;2022-07-18T11:43:33;1.45;;;0.70;;
21825;SDS011;11075;47.944;11.776;2022-07-18T11:46:05;2.35;;;1.02;;
21825;SDS011;11075;47.944;11.776;2022-07-18T11:48:41;1.00;;;0.90;;
21825;SDS011;11075;47.944;11.776;2022-07-18T11:51:09;1.98;;;0.95;;
21825;SDS011;11075;47.944;11.776;2022-07-18T11:56:11;2.40;;;1.10;;
21825;SDS011;11075;47.944;11.776;2022-07-18T11:58:39;1.52;;;0.88;;
21825;SDS011;11075;47.944;11.776;2022-07-18T12:01:08;0.95;;;0.63;;
21825;SDS011;11075;47.944;11.776;2022-07-18T12:03:56;2.00;;;0.90;;
21825;SDS011;11075;47.944;11.776;2022-07-18T12:06:22;1.52;;;0.80;;
21825;SDS011;11075;47.944;11.776;2022-07-18T12:08:51;1.05;;;0.95;;
21825;SDS011;11075;47.944;11.776;2022-07-18T12:21:56;3.70;;;0.90;;
21825;SDS011;11075;47.944;11.776;2022-07-18T12:24:34;0.88;;;0.85;;
21825;SDS011;11075;47.944;11.776;2022-07-18T12:32:23;1.05;;;0.88;;
21825;SDS011;11075;47.944;11.776;2022-07-18T12:34:54;1.50;;;0.90;;
21825;SDS011;11075;47.944;11.776;2022-07-18T12:37:26;7.57;;;1.95;;
21825;SDS011;11075;47.944;11.776;2022-07-18T12:39:56;2.35;;;0.90;;
21825;SDS011;11075;47.944;11.776;2022-07-18T12:42:49;2.42;;;0.90;;
21825;SDS011;11075;47.944;11.776;2022-07-18T12:45:16;1.20;;;0.98;;
21825;SDS011;11075;47.944;11.776;2022-07-18T12:47:43;4.60;;;1.58;;
21825;SDS011;11075;47.944;11.776;2022-07-18T12:50:10;0.90;;;0.90;;
21825;SDS011;11075;47.944;11.776;2022-07-18T12:52:40;2.63;;;1.00;;
21825;SDS011;11075;47.944;11.776;2022-07-18T12:55:07;1.00;;;0.80;;
21825;SDS011;11075;47.944;11.776;2022-07-18T12:57:35;0.77;;;0.63;;
21825;SDS011;11075;47.944;11.776;2022-07-18T13:00:02;1.85;;;1.00;;
21825;SDS011;11075;47.944;11.776;2022-07-18T13:02:30;1.27;;;1.08;;
21825;SDS011;11075;47.944;11.776;2022-07-18T13:04:57;1.35;;;0.90;;
21825;SDS011;11075;47.944;11.776;2022-07-18T13:07:23;2.75;;;0.85;;
21825;SDS011;11075;47.944;11.776;2022-07-18T13:09:50;1.83;;;0.88;;
21825;SDS011;11075;47.944;11.776;2022-07-18T13:12:17;2.22;;;1.20;;
21825;SDS011;11075;47.944;11.776;2022-07-18T13:14:44;2.97;;;1.00;;
21825;SDS011;11075;47.944;11.776;2022-07-18T13:17:11;3.65;;;0.98;;
21825;SDS011;11075;47.944;11.776;2022-07-18T13:19:38;3.05;;;0.88;;
21825;SDS011;11075;47.944;11.776;2022-07-18T13:22:06;2.35;;;1.00;;
21825;SDS011;11075;47.944;11.776;2022-07-18T13:24:32;1.65;;;0.95;;
21825;SDS011;11075;47.944;11.776;2022-07-18T13:27:01;1.63;;;1.05;;
21825;SDS011;11075;47.944;11.776;2022-07-18T13:29:30;3.30;;;0.85;;
21825;SDS011;11075;47.944;11.776;2022-07-18T13:31:56;4.18;;;0.90;;
21825;SDS011;11075;47.944;11.776;2022-07-18T13:34:23;3.00;;;1.00;;
21825;SDS011;11075;47.944;11.776;2022-07-18T13:36:51;0.98;;;0.70;;
21825;SDS011;11075;47.944;11.776;2022-07-18T13:39:19;3.55;;;0.80;;
21825;SDS011;11075;47.944;11.776;2022-07-18T13:41:47;0.88;;;0.82;;
21825;SDS011;11075;47.944;11.776;2022-07-18T13:44:14;2.05;;;0.70;;
21825;SDS011;11075;47.944;11.776;2022-07-18T13:46:41;0.90;;;0.88;;
21825;SDS011;11075;47.944;11.776;2022-07-18T13:49:09;1.25;;;0.85;;
21825;SDS011;11075;47.944;11.776;2022-07-18T13:51:37;1.45;;;0.90;;
21825;SDS011;11075;47.944;11.776;2022-07-18T13:54:05;1.95;;;1.00;;
21825;SDS011;11075;47.944;11.776;2022-07-18T13:56:32;0.95;;;0.85;;
21825;SDS011;11075;47.944;11.776;2022-07-18T13:58:59;2.85;;;0.93;;
21825;SDS011;11075;47.944;11.776;2022-07-18T14:01:26;3.13;;;0.98;;
21825;SDS011;11075;47.944;11.776;2022-07-18T14:03:54;1.88;;;1.30;;
21825;SDS011;11075;47.944;11.776;2022-07-18T14:06:21;3.33;;;1.02;;
21825;SDS011;11075;47.944;11.776;2022-07-18T14:08:48;1.33;;;1.23;;
21825;SDS011;11075;47.944;11.776;2022-07-18T14:11:15;1.02;;;0.93;;
21825;SDS011;11075;47.944;11.776;2022-07-18T14:13:42;2.70;;;0.95;;
21825;SDS011;11075;47.944;11.776;2022-07-18T14:16:09;1.35;;;1.00;;
21825;SDS011;11075;47.944;11.776;2022-07-18T14:18:36;1.45;;;1.00;;
21825;SDS011;11075;47.944;11.776;2022-07-18T14:21:03;1.92;;;0.80;;
21825;SDS011;11075;47.944;11.776;2022-07-18T14:23:31;1.83;;;0.90;;
21825;SDS011;11075;47.944;11.776;2022-07-18T14:25:58;1.73;;;0.90;;
21825;SDS011;11075;47.944;11.776;2022-07-18T14:28:25;1.13;;;0.85;;
21825;SDS011;11075;47.944;11.776;2022-07-18T14:30:52;4.35;;;1.15;;
21825;SDS011;11075;47.944;11.776;2022-07-18T14:33:18;2.22;;;0.95;;
21825;SDS011;11075;47.944;11.776;2022-07-18T14:35:46;2.35;;;0.82;;
21825;SDS011;11075;47.944;11.776;2022-07-18T14:38:13;2.05;;;1.00;;
21825;SDS011;11075;47.944;11.776;2022-07-18T14:40:39;1.73;;;0.90;;
21825;SDS011;11075;47.944;11.776;2022-07-18T14:43:08;5.32;;;1.25;;
21825;SDS011;11075;47.944;11.776;2022-07-18T14:45:34;2.20;;;1.15;;
21825;SDS011;11075;47.944;11.776;2022-07-18T14:48:20;0.88;;;0.88;;
21825;SDS011;11075;47.944;11.776;2022-07-18T14:50:47;2.60;;;1.05;;
21825;SDS011;11075;47.944;11.776;2022-07-18T14:53:14;3.33;;;1.20;;
21825;SDS011;11075;47.944;11.776;2022-07-18T14:55:42;3.13;;;1.00;;
21825;SDS011;11075;47.944;11.776;2022-07-18T14:58:10;1.02;;;0.95;;
21825;SDS011;11075;47.944;11.776;2022-07-18T15:00:37;3.67;;;1.95;;
21825;SDS011;11075;47.944;11.776;2022-07-18T15:03:04;2.90;;;1.35;;
21825;SDS011;11075;47.944;11.776;2022-07-18T15:05:31;2.70;;;1.13;;
21825;SDS011;11075;47.944;11.776;2022-07-18T15:07:58;5.55;;;1.48;;
21825;SDS011;11075;47.944;11.776;2022-07-18T15:10:25;1.40;;;1.10;;
21825;SDS011;11075;47.944;11.776;2022-07-18T15:12:52;2.92;;;1.00;;
21825;SDS011;11075;47.944;11.776;2022-07-18T15:15:19;1.35;;;0.98;;
21825;SDS011;11075;47.944;11.776;2022-07-18T15:17:45;1.92;;;1.02;;
21825;SDS011;11075;47.944;11.776;2022-07-18T15:20:12;1.15;;;1.08;;
21825;SDS011;11075;47.944;11.776;2022-07-18T15:22:39;2.88;;;1.10;;
21825;SDS011;11075;47.944;11.776;2022-07-18T15:25:07;1.42;;;1.00;;
21825;SDS011;11075;47.944;11.776;2022-07-18T15:27:34;3.05;;;1.23;;
21825;SDS011;11075;47.944;11.776;2022-07-18T15:30:01;1.75;;;1.15;;